Latest Coastal Weather Observations for Hogan Island

IDV60701

Issued at 8:02 pm EDT Wednesday 7 December 2022 (issued every 10 minutes, with the page automatically refreshed every 10 minutes)

About coastal observations | Map of coastal stations | Coastal observations for VIC | Marine services | Other Formats
Station Details ID: 200838 Name: HOGAN ISLAND Lat: -39.22 Lon: 146.98 Height: 116.0 m
Data from the previous 72 hours. | See also: Recent months at Hogan Island
Date/Time
EDT
Wind Sea
Height
m
Swell Vis
km
Cloud Weather Temp
°C
Press
MSL
hPa
Rain since
9am
mm
Dir  Spd
kts
Gust
kts
Height
m
Period
s
Dir
07/08:00pm W 36 41 - - - - - - - 13.6 1000.8 0.0
07/07:30pm W 38 43 - - - - - - - 13.7 1000.5 0.0
07/07:00pm W 34 39 - - - - - - - 14.0 1000.5 0.0
07/06:30pm W 35 40 - - - - - - - 13.8 1000.4 0.0
07/06:00pm W 36 41 - - - - - - - 14.9 1000.2 0.0
07/05:30pm WSW 35 42 - - - - - - - 14.9 1000.1 0.0
07/05:00pm WSW 32 38 - - - - - - - 15.3 1000.6 0.0
07/04:30pm WSW 33 39 - - - - - - - 15.6 1000.9 0.0
07/04:00pm WSW 31 37 - - - - - - - 16.0 1001.2 0.0
07/03:30pm WSW 28 33 - - - - - - - 16.2 1001.6 0.0
07/03:00pm WSW 29 33 - - - - - - - 16.8 1001.9 0.0
07/02:30pm W 27 31 - - - - - - - 15.0 1001.9 0.0
07/02:00pm W 28 33 - - - - - - - 16.3 1001.8 0.0
07/01:30pm WSW 31 35 - - - - - - - 15.8 1001.7 0.0
07/01:00pm WSW 28 33 - - - - - - - 16.1 1001.8 0.0
07/12:30pm WSW 24 27 - - - - - - - 15.6 1002.2 0.0
07/12:00pm WSW 24 27 - - - - - - - 16.7 1002.2 0.0
07/11:30am WSW 21 25 - - - - - - - 15.7 1002.3 0.0
07/11:00am WSW 15 19 - - - - - - - 16.8 1002.7 0.0
07/10:30am WSW 14 16 - - - - - - - 17.3 1002.8 0.0
07/10:00am WSW 15 17 - - - - - - - 16.1 1003.0 0.0
07/09:30am WSW 14 16 - - - - - - - 15.4 1003.2 0.0
07/09:00am W 13 15 - - - - - - - 15.0 1003.4 0.0
07/08:30am WSW 10 13 - - - - - - - 14.7 1003.3 0.0
07/08:00am W 11 13 - - - - - - - 13.7 1003.3 0.0
07/07:30am W 11 13 - - - - - - - 12.9 1003.3 0.0
07/07:00am W 9 11 - - - - - - - 12.3 1003.2 0.0
07/06:30am WNW 7 9 - - - - - - - 11.5 1003.1 0.0
07/06:00am WNW 8 9 - - - - - - - 11.2 1003.3 0.0
07/05:30am WNW 3 4 - - - - - - - 11.5 1002.9 0.0
07/05:00am WNW 4 5 - - - - - - - 11.1 1002.9 0.0
07/04:30am W 6 7 - - - - - - - 11.0 1003.2 0.0
07/04:00am WNW 7 8 - - - - - - - 11.1 1003.7 0.0
07/03:30am WNW 5 7 - - - - - - - 10.8 1003.9 0.0
07/03:00am W 6 7 - - - - - - - 10.7 1004.2 0.0
07/02:30am WSW 6 8 - - - - - - - 10.8 1004.5 0.0
07/02:00am WSW 7 9 - - - - - - - 11.1 1004.9 0.0
07/01:30am W 9 11 - - - - - - - 11.4 1005.4 0.0
07/01:00am W 8 10 - - - - - - - 11.4 1005.6 0.0
07/12:30am W 7 9 - - - - - - - 11.1 1006.0 0.0
07/12:00am WSW 7 10 - - - - - - - 11.2 1006.6 0.0
 
Date/Time
EDT
Wind Sea
Height
m
Swell Vis
km
Cloud Weather Temp
°C
Press
MSL
hPa
Rain since
9am
mm
Dir  Spd
kts
Gust
kts
Height
m
Period
s
Dir
06/11:30pm W 8 10 - - - - - - - 11.2 1007.1 0.0
06/11:00pm WNW 10 11 - - - - - - - 11.6 1007.2 0.0
06/10:30pm W 9 11 - - - - - - - 11.3 1007.3 0.0
06/10:00pm WNW 8 11 - - - - - - - 11.5 1007.6 0.0
06/09:30pm W 8 9 - - - - - - - 11.2 1007.8 0.0
06/09:00pm WNW 7 8 - - - - - - - 11.4 1007.7 0.0
06/08:30pm W 8 10 - - - - - - - 11.7 1007.9 0.0
06/08:00pm W 6 7 - - - - - - - 12.9 1007.8 0.0
06/07:30pm W 5 6 - - - - - - - 14.0 1007.8 0.0
06/07:00pm WNW 6 8 - - - - - - - 14.3 1008.0 0.0
06/06:30pm WSW 4 6 - - - - - - - 14.7 1007.8 0.0
06/06:00pm W 5 6 - - - - - - - 15.6 1008.0 0.0
06/05:30pm WNW 4 7 - - - - - - - 16.2 1008.3 0.0
06/05:00pm WSW 5 8 - - - - - - - 16.6 1008.6 0.0
06/04:30pm ENE 6 8 - - - - - - - 15.4 1008.8 0.0
06/04:00pm NE 6 8 - - - - - - - 15.7 1009.1 0.0
06/03:30pm E 7 9 - - - - - - - 15.2 1009.5 0.0
06/03:00pm E 6 7 - - - - - - - 15.3 1009.7 0.0
06/02:30pm E 8 11 - - - - - - - 16.2 1009.8 0.0
06/02:00pm SE 10 12 - - - - - - - 16.4 1010.2 0.0
06/01:30pm SE 11 14 - - - - - - - 16.7 1010.3 0.0
06/01:00pm SE 12 14 - - - - - - - 16.3 1010.7 0.0
06/12:30pm SE 13 16 - - - - - - - 16.8 1010.8 0.0
06/12:00pm SE 14 16 - - - - - - - 15.6 1011.1 0.0
06/11:30am SE 16 20 - - - - - - - 15.2 1011.2 0.0
06/11:00am ESE 16 19 - - - - - - - 15.3 1011.2 0.0
06/10:30am SE 19 22 - - - - - - - 13.6 1011.3 0.0
06/10:00am SE 21 24 - - - - - - - 13.3 1011.5 0.0
06/09:30am SE 22 25 - - - - - - - 13.4 1011.7 0.0
06/09:00am SE 21 25 - - - - - - - 14.8 1011.7 1.2
06/08:30am SE 21 25 - - - - - - - 12.8 1011.7 1.2
06/08:00am SE 22 26 - - - - - - - 12.2 1011.4 1.2
06/07:30am SE 22 26 - - - - - - - 12.6 1011.3 1.2
06/07:00am SE 21 25 - - - - - - - 13.0 1011.3 1.2
06/06:30am SE 19 23 - - - - - - - 11.9 1011.4 1.2
06/06:00am SE 22 25 - - - - - - - 11.4 1011.2 1.2
06/05:30am SE 21 26 - - - - - - - 11.2 1010.9 1.2
06/05:00am SE 23 28 - - - - - - - 11.8 1010.7 1.2
06/04:30am SE 24 28 - - - - - - - 11.8 1010.7 1.2
06/04:00am SE 24 30 - - - - - - - 11.7 1010.6 1.2
06/03:30am SE 26 31 - - - - - - - 12.0 1010.5 1.2
06/03:00am SE 24 28 - - - - - - - 11.9 1010.6 1.2
06/02:30am SE 25 30 - - - - - - - 12.1 1010.6 1.2
06/02:00am SE 24 28 - - - - - - - 12.2 1010.6 1.2
06/01:30am SE 26 30 - - - - - - - 12.0 1010.8 1.2
06/01:00am SE 24 29 - - - - - - - 12.4 1011.1 1.2
06/12:30am SE 24 30 - - - - - - - 12.3 1011.3 1.2
06/12:00am SE 27 32 - - - - - - - 12.0 1011.1 1.2
 
Date/Time
EDT
Wind Sea
Height
m
Swell Vis
km
Cloud Weather Temp
°C
Press
MSL
hPa
Rain since
9am
mm
Dir  Spd
kts
Gust
kts
Height
m
Period
s
Dir
05/11:30pm SE 24 28 - - - - - - - 12.4 1011.4 1.2
05/11:00pm SE 26 31 - - - - - - - 12.5 1011.3 1.2
05/10:30pm SE 22 25 - - - - - - - 12.3 1011.4 1.2
05/10:00pm ESE 23 27 - - - - - - - 12.8 1011.2 1.0
05/09:30pm ESE 22 26 - - - - - - - 13.0 1010.7 1.0
05/09:00pm ESE 27 32 - - - - - - - 13.0 1009.9 1.0
05/08:30pm ESE 33 37 - - - - - - - 12.9 1009.1 1.0
05/08:27pm ESE 31 37 - - - - - - - 12.9 1009.1 1.0
05/08:00pm ESE 23 30 - - - - - - - 12.9 1009.1 1.0
05/07:30pm ESE 25 29 - - - - - - - 12.7 1009.2 0.8
05/07:00pm ESE 21 26 - - - - - - - 13.2 1008.7 0.4
05/06:30pm SE 27 34 - - - - - - - 13.3 1008.3 0.4
05/06:00pm ESE 32 38 - - - - - - - 14.5 1006.4 0.0
05/05:30pm ESE 33 39 - - - - - - - 14.6 1005.9 0.0
05/05:00pm SE 33 40 - - - - - - - 14.9 1005.5 0.0
05/04:41pm SE 34 42 - - - - - - - 15.1 1005.3 0.0
05/04:30pm SE 27 35 - - - - - - - 15.2 1005.4 0.0
05/04:19pm SSE 21 29 - - - - - - - 15.3 1005.4 0.0
05/04:00pm S 15 19 - - - - - - - 16.4 1005.1 0.0
05/03:30pm SW 13 16 - - - - - - - 15.9 1004.8 0.0
05/03:00pm WSW 19 22 - - - - - - - 15.9 1004.5 0.0
05/02:30pm WSW 24 27 - - - - - - - 16.0 1004.2 0.0
05/02:00pm W 25 29 - - - - - - - 15.8 1003.8 0.0
05/01:30pm W 28 34 - - - - - - - 16.4 1003.5 0.0
05/01:00pm WNW 27 32 - - - - - - - 16.8 1003.4 0.0
05/12:30pm W 27 32 - - - - - - - 16.3 1003.9 0.0
05/12:00pm W 27 32 - - - - - - - 16.2 1003.9 0.0
05/11:30am W 28 32 - - - - - - - 16.0 1004.0 0.0
05/11:00am W 25 29 - - - - - - - 15.9 1004.1 0.0
05/10:30am W 25 28 - - - - - - - 15.6 1004.0 0.0
05/10:00am W 29 33 - - - - - - - 15.2 1003.4 0.0
05/09:30am W 29 34 - - - - - - - 15.3 1004.2 0.0
05/09:00am W 30 35 - - - - - - - 16.3 1003.5 0.2
05/08:30am W 28 32 - - - - - - - 16.3 1003.5 0.2
05/08:00am W 28 32 - - - - - - - 15.5 1003.4 0.2
05/07:30am W 29 34 - - - - - - - 15.1 1003.8 0.2
05/07:00am W 28 33 - - - - - - - 14.9 1003.5 0.2
05/06:30am W 27 31 - - - - - - - 15.0 1003.7 0.2
05/06:00am W 28 34 - - - - - - - 15.3 1004.0 0.0
05/05:30am W 32 37 - - - - - - - 15.6 1003.1 0.0
05/05:00am W 24 29 - - - - - - - 16.0 1002.6 0.0
05/04:30am WSW 14 23 - - - - - - - 16.7 1002.3 0.0
05/04:00am SSE 15 17 - - - - - - - 17.1 1002.0 0.0
05/03:30am SSW 12 18 - - - - - - - 16.6 1002.2 0.0
05/03:00am SSW 17 23 - - - - - - - 16.8 1002.5 0.0
05/02:30am SW 22 29 - - - - - - - 17.8 1003.1 0.0
05/02:00am WSW 25 30 - - - - - - - 18.5 1003.0 0.0
05/01:51am WSW 25 32 - - - - - - - 19.2 1002.9 0.0
05/01:35am WNW 26 35 - - - - - - - 20.2 1002.5 0.0
05/01:30am WNW 23 35 - - - - - - - 21.0 1002.2 0.0
05/01:24am NW 21 30 - - - - - - - 20.0 1002.3 0.0
05/01:19am WNW 20 30 - - - - - - - 19.7 1002.5 0.0
05/01:15am W 18 30 - - - - - - - 20.3 1002.4 0.0
05/01:13am W 18 30 - - - - - - - 19.3 1002.7 0.0
05/01:05am N 26 36 - - - - - - - 20.1 1002.8 0.0
05/01:00am N 30 36 - - - - - - - 21.3 1001.6 0.0
05/12:30am N 27 31 - - - - - - - 19.6 1001.9 0.0
05/12:00am N 26 31 - - - - - - - 19.7 1002.7 0.0
 
Date/Time
EDT
Wind Sea
Height
m
Swell Vis
km
Cloud Weather Temp
°C
Press
MSL
hPa
Rain since
9am
mm
Dir  Spd
kts
Gust
kts
Height
m
Period
s
Dir
04/11:30pm NNE 24 29 - - - - - - - 19.7 1003.4 0.0
04/11:00pm NNE 25 30 - - - - - - - 19.8 1004.2 0.0
04/10:30pm NNE 24 29 - - - - - - - 19.3 1004.7 0.0
04/10:00pm NNE 22 26 - - - - - - - 18.7 1005.2 0.0
04/09:30pm NNE 20 23 - - - - - - - 18.8 1006.0 0.0
04/09:00pm NNE 20 25 - - - - - - - 19.0 1006.4 0.0
04/08:30pm NNE 17 20 - - - - - - - 19.0 1006.5 0.0

Other formats

Comma delimited format used in spreadsheet applications
http://www.bom.gov.au/fwo/IDV60701/IDV60701.94949.axf

JavaScript Object Notation format (JSON) in row-major order
http://www.bom.gov.au/fwo/IDV60701/IDV60701.94949.json

Data quality

Most of these data are generated automatically and are frequently updated. Quality checks on data are not normally performed. It is possible for incorrect values to appear. Refer to information at About Latest Weather Observations and please check the disclaimer before using these data.